Island Harbour, Canada
Current Conditions -  °F | °C
As of 9:00 PM on Monday 24 Nov 2014 (Local Time) from CYQX Reporting Station
Overcast Overcast  
Wind Chill: 18°   Ceiling: 12000
Heat Index: 30°   Visibility: 20mi
Dew Point: 16°   Wind: 17mph
Humidity: 55%   Direction: 170°S
Pressure: 30.26"   Gusts: 24mph
Location:  49.6°N, 54.3°W
Report Text: CYQX 250000Z 17015G21KT 20SM OVC120 M01/M09 A3026 RMK AC8 SLP257
Loading
Personal Weather Stations






























Interactive Weather Map New forecast layout! Learn more

10-Day Weather Forecast

Advertisements
Track Severe Weather on mobile